sensor_id;sensor_type;location;lat;lon;timestamp;P1;durP1;ratioP1;P2;durP2;ratioP2
13879;SDS011;7010;48.200;16.332;2022-07-29T00:00:06;2.35;;;2.22;;
13879;SDS011;7010;48.200;16.332;2022-07-29T00:02:37;2.92;;;2.72;;
13879;SDS011;7010;48.200;16.332;2022-07-29T00:05:05;2.97;;;2.72;;
13879;SDS011;7010;48.200;16.332;2022-07-29T00:07:35;2.50;;;2.38;;
13879;SDS011;7010;48.200;16.332;2022-07-29T00:10:04;3.85;;;3.00;;
13879;SDS011;7010;48.200;16.332;2022-07-29T00:12:32;3.65;;;2.80;;
13879;SDS011;7010;48.200;16.332;2022-07-29T00:15:03;4.10;;;3.17;;
13879;SDS011;7010;48.200;16.332;2022-07-29T00:17:32;3.35;;;3.05;;
13879;SDS011;7010;48.200;16.332;2022-07-29T00:20:02;3.70;;;3.33;;
13879;SDS011;7010;48.200;16.332;2022-07-29T00:22:31;3.55;;;2.67;;
13879;SDS011;7010;48.200;16.332;2022-07-29T00:25:00;5.43;;;3.13;;
13879;SDS011;7010;48.200;16.332;2022-07-29T00:27:28;3.30;;;3.00;;
13879;SDS011;7010;48.200;16.332;2022-07-29T00:29:56;3.83;;;2.65;;
13879;SDS011;7010;48.200;16.332;2022-07-29T00:32:25;3.65;;;3.10;;
13879;SDS011;7010;48.200;16.332;2022-07-29T00:34:53;4.05;;;3.05;;
13879;SDS011;7010;48.200;16.332;2022-07-29T00:37:40;3.60;;;3.08;;
13879;SDS011;7010;48.200;16.332;2022-07-29T00:40:09;2.95;;;2.75;;
13879;SDS011;7010;48.200;16.332;2022-07-29T00:42:41;2.75;;;2.55;;
13879;SDS011;7010;48.200;16.332;2022-07-29T00:45:10;9.43;;;2.90;;
13879;SDS011;7010;48.200;16.332;2022-07-29T00:47:39;4.82;;;2.90;;
13879;SDS011;7010;48.200;16.332;2022-07-29T00:50:08;3.55;;;3.22;;
13879;SDS011;7010;48.200;16.332;2022-07-29T00:52:40;5.32;;;3.05;;
13879;SDS011;7010;48.200;16.332;2022-07-29T00:55:10;3.67;;;3.38;;
13879;SDS011;7010;48.200;16.332;2022-07-29T00:57:39;3.33;;;3.08;;
13879;SDS011;7010;48.200;16.332;2022-07-29T01:00:09;3.53;;;2.92;;
13879;SDS011;7010;48.200;16.332;2022-07-29T01:02:43;2.97;;;2.67;;
13879;SDS011;7010;48.200;16.332;2022-07-29T01:05:14;3.00;;;2.72;;
13879;SDS011;7010;48.200;16.332;2022-07-29T01:07:47;4.15;;;2.90;;
13879;SDS011;7010;48.200;16.332;2022-07-29T01:10:18;3.17;;;2.88;;
13879;SDS011;7010;48.200;16.332;2022-07-29T01:12:49;2.63;;;2.42;;
13879;SDS011;7010;48.200;16.332;2022-07-29T01:15:18;2.72;;;2.53;;
13879;SDS011;7010;48.200;16.332;2022-07-29T01:17:50;2.60;;;2.40;;
13879;SDS011;7010;48.200;16.332;2022-07-29T01:20:26;4.05;;;3.17;;
13879;SDS011;7010;48.200;16.332;2022-07-29T01:23:11;3.00;;;2.80;;
13879;SDS011;7010;48.200;16.332;2022-07-29T01:26:11;3.33;;;3.05;;
13879;SDS011;7010;48.200;16.332;2022-07-29T01:31:47;2.92;;;2.63;;
13879;SDS011;7010;48.200;16.332;2022-07-29T01:34:27;4.13;;;3.20;;
13879;SDS011;7010;48.200;16.332;2022-07-29T01:37:01;3.10;;;2.85;;
13879;SDS011;7010;48.200;16.332;2022-07-29T01:39:36;9.32;;;3.78;;
13879;SDS011;7010;48.200;16.332;2022-07-29T01:42:06;3.25;;;2.95;;
13879;SDS011;7010;48.200;16.332;2022-07-29T01:44:45;5.10;;;3.08;;
13879;SDS011;7010;48.200;16.332;2022-07-29T01:47:20;3.65;;;3.22;;
13879;SDS011;7010;48.200;16.332;2022-07-29T01:49:54;2.78;;;2.58;;
13879;SDS011;7010;48.200;16.332;2022-07-29T01:52:25;3.13;;;2.90;;
13879;SDS011;7010;48.200;16.332;2022-07-29T01:55:00;3.40;;;3.15;;
13879;SDS011;7010;48.200;16.332;2022-07-29T01:57:32;3.55;;;3.25;;
13879;SDS011;7010;48.200;16.332;2022-07-29T02:00:05;4.55;;;3.25;;
13879;SDS011;7010;48.200;16.332;2022-07-29T02:02:35;3.15;;;2.95;;
13879;SDS011;7010;48.200;16.332;2022-07-29T02:05:06;4.40;;;2.80;;
13879;SDS011;7010;48.200;16.332;2022-07-29T02:07:38;9.73;;;2.92;;
13879;SDS011;7010;48.200;16.332;2022-07-29T02:10:09;2.90;;;2.70;;
13879;SDS011;7010;48.200;16.332;2022-07-29T02:12:39;3.10;;;2.88;;
13879;SDS011;7010;48.200;16.332;2022-07-29T02:15:17;3.13;;;2.92;;
13879;SDS011;7010;48.200;16.332;2022-07-29T02:17:49;4.72;;;3.75;;
13879;SDS011;7010;48.200;16.332;2022-07-29T02:20:22;3.28;;;3.08;;
13879;SDS011;7010;48.200;16.332;2022-07-29T02:22:52;3.17;;;2.92;;
13879;SDS011;7010;48.200;16.332;2022-07-29T02:25:22;4.68;;;2.97;;
13879;SDS011;7010;48.200;16.332;2022-07-29T02:28:03;3.58;;;3.22;;
13879;SDS011;7010;48.200;16.332;2022-07-29T02:30:35;5.65;;;3.17;;
13879;SDS011;7010;48.200;16.332;2022-07-29T02:33:07;3.42;;;3.13;;
13879;SDS011;7010;48.200;16.332;2022-07-29T02:35:37;5.13;;;3.40;;
13879;SDS011;7010;48.200;16.332;2022-07-29T02:38:08;4.00;;;3.60;;
13879;SDS011;7010;48.200;16.332;2022-07-29T02:40:56;3.33;;;3.05;;
13879;SDS011;7010;48.200;16.332;2022-07-29T02:43:27;3.55;;;3.20;;
13879;SDS011;7010;48.200;16.332;2022-07-29T02:45:59;4.93;;;3.55;;
13879;SDS011;7010;48.200;16.332;2022-07-29T02:48:38;3.40;;;3.10;;
13879;SDS011;7010;48.200;16.332;2022-07-29T02:51:12;2.80;;;2.60;;
13879;SDS011;7010;48.200;16.332;2022-07-29T02:54:06;3.00;;;2.80;;
13879;SDS011;7010;48.200;16.332;2022-07-29T02:56:37;3.65;;;3.35;;
13879;SDS011;7010;48.200;16.332;2022-07-29T02:59:08;4.07;;;3.67;;
13879;SDS011;7010;48.200;16.332;2022-07-29T03:01:41;3.38;;;3.10;;
13879;SDS011;7010;48.200;16.332;2022-07-29T03:04:11;5.00;;;3.92;;
13879;SDS011;7010;48.200;16.332;2022-07-29T03:06:42;5.22;;;3.60;;
13879;SDS011;7010;48.200;16.332;2022-07-29T03:09:12;3.45;;;3.15;;
13879;SDS011;7010;48.200;16.332;2022-07-29T03:11:41;3.80;;;3.45;;
13879;SDS011;7010;48.200;16.332;2022-07-29T03:14:16;3.47;;;3.17;;
13879;SDS011;7010;48.200;16.332;2022-07-29T03:16:48;4.18;;;3.75;;
13879;SDS011;7010;48.200;16.332;2022-07-29T03:19:17;4.03;;;3.50;;
13879;SDS011;7010;48.200;16.332;2022-07-29T03:21:47;5.60;;;3.28;;
13879;SDS011;7010;48.200;16.332;2022-07-29T03:24:25;3.80;;;3.50;;
13879;SDS011;7010;48.200;16.332;2022-07-29T03:26:55;4.80;;;3.58;;
13879;SDS011;7010;48.200;16.332;2022-07-29T03:29:24;3.83;;;3.42;;
13879;SDS011;7010;48.200;16.332;2022-07-29T03:32:01;3.95;;;3.65;;
13879;SDS011;7010;48.200;16.332;2022-07-29T03:34:34;5.15;;;3.83;;
13879;SDS011;7010;48.200;16.332;2022-07-29T03:37:03;4.28;;;3.90;;
13879;SDS011;7010;48.200;16.332;2022-07-29T03:39:33;3.47;;;3.17;;
13879;SDS011;7010;48.200;16.332;2022-07-29T03:42:06;4.43;;;3.80;;
13879;SDS011;7010;48.200;16.332;2022-07-29T03:44:36;3.88;;;3.55;;
13879;SDS011;7010;48.200;16.332;2022-07-29T03:47:07;3.25;;;2.97;;
13879;SDS011;7010;48.200;16.332;2022-07-29T03:49:37;6.85;;;3.85;;
13879;SDS011;7010;48.200;16.332;2022-07-29T03:52:07;3.50;;;3.17;;
13879;SDS011;7010;48.200;16.332;2022-07-29T03:54:36;3.85;;;3.50;;
13879;SDS011;7010;48.200;16.332;2022-07-29T03:57:04;4.05;;;3.75;;
13879;SDS011;7010;48.200;16.332;2022-07-29T03:59:34;3.45;;;3.22;;
13879;SDS011;7010;48.200;16.332;2022-07-29T04:02:04;5.28;;;3.50;;
13879;SDS011;7010;48.200;16.332;2022-07-29T04:04:37;3.40;;;3.10;;
13879;SDS011;7010;48.200;16.332;2022-07-29T04:07:05;4.10;;;3.72;;
13879;SDS011;7010;48.200;16.332;2022-07-29T04:09:34;3.47;;;3.17;;
13879;SDS011;7010;48.200;16.332;2022-07-29T04:12:02;4.40;;;4.00;;
13879;SDS011;7010;48.200;16.332;2022-07-29T04:14:31;4.00;;;3.70;;
13879;SDS011;7010;48.200;16.332;2022-07-29T04:17:00;5.03;;;3.38;;
13879;SDS011;7010;48.200;16.332;2022-07-29T04:19:29;4.55;;;4.15;;
13879;SDS011;7010;48.200;16.332;2022-07-29T04:22:00;3.30;;;3.03;;
13879;SDS011;7010;48.200;16.332;2022-07-29T04:24:29;20.58;;;4.43;;
13879;SDS011;7010;48.200;16.332;2022-07-29T04:26:57;4.47;;;4.07;;
13879;SDS011;7010;48.200;16.332;2022-07-29T04:29:25;3.53;;;3.22;;
13879;SDS011;7010;48.200;16.332;2022-07-29T04:31:53;3.97;;;3.67;;
13879;SDS011;7010;48.200;16.332;2022-07-29T04:34:22;4.57;;;4.18;;
13879;SDS011;7010;48.200;16.332;2022-07-29T04:36:53;4.28;;;3.88;;
13879;SDS011;7010;48.200;16.332;2022-07-29T04:39:23;4.30;;;3.90;;
13879;SDS011;7010;48.200;16.332;2022-07-29T04:41:55;4.10;;;3.80;;
13879;SDS011;7010;48.200;16.332;2022-07-29T04:44:24;4.68;;;4.25;;
13879;SDS011;7010;48.200;16.332;2022-07-29T04:46:54;4.25;;;3.92;;
13879;SDS011;7010;48.200;16.332;2022-07-29T04:49:23;3.97;;;3.67;;
13879;SDS011;7010;48.200;16.332;2022-07-29T04:51:51;9.23;;;4.05;;
13879;SDS011;7010;48.200;16.332;2022-07-29T04:54:19;4.30;;;4.00;;
13879;SDS011;7010;48.200;16.332;2022-07-29T04:56:49;4.60;;;4.03;;
13879;SDS011;7010;48.200;16.332;2022-07-29T04:59:17;4.55;;;4.15;;
13879;SDS011;7010;48.200;16.332;2022-07-29T05:01:45;4.22;;;3.90;;
13879;SDS011;7010;48.200;16.332;2022-07-29T05:04:14;8.50;;;4.03;;
13879;SDS011;7010;48.200;16.332;2022-07-29T05:06:43;4.55;;;4.15;;
13879;SDS011;7010;48.200;16.332;2022-07-29T05:09:11;9.07;;;3.72;;
13879;SDS011;7010;48.200;16.332;2022-07-29T05:11:40;3.40;;;3.15;;
13879;SDS011;7010;48.200;16.332;2022-07-29T05:14:10;6.88;;;4.35;;
13879;SDS011;7010;48.200;16.332;2022-07-29T05:16:39;5.15;;;4.50;;
13879;SDS011;7010;48.200;16.332;2022-07-29T05:19:08;4.45;;;3.90;;
13879;SDS011;7010;48.200;16.332;2022-07-29T05:21:40;3.70;;;3.40;;
13879;SDS011;7010;48.200;16.332;2022-07-29T05:24:08;3.65;;;3.35;;
13879;SDS011;7010;48.200;16.332;2022-07-29T05:26:36;4.13;;;3.70;;
13879;SDS011;7010;48.200;16.332;2022-07-29T05:29:05;5.63;;;4.05;;
13879;SDS011;7010;48.200;16.332;2022-07-29T05:31:54;4.10;;;3.72;;
13879;SDS011;7010;48.200;16.332;2022-07-29T05:34:23;4.65;;;3.65;;
13879;SDS011;7010;48.200;16.332;2022-07-29T05:36:51;4.45;;;3.88;;
13879;SDS011;7010;48.200;16.332;2022-07-29T05:39:19;5.28;;;4.03;;
13879;SDS011;7010;48.200;16.332;2022-07-29T05:42:08;3.47;;;3.17;;
13879;SDS011;7010;48.200;16.332;2022-07-29T05:44:37;6.20;;;3.97;;
13879;SDS011;7010;48.200;16.332;2022-07-29T05:47:07;5.38;;;4.28;;
13879;SDS011;7010;48.200;16.332;2022-07-29T05:49:35;3.72;;;3.42;;
13879;SDS011;7010;48.200;16.332;2022-07-29T05:52:03;4.07;;;3.67;;
13879;SDS011;7010;48.200;16.332;2022-07-29T05:54:32;4.57;;;4.18;;
13879;SDS011;7010;48.200;16.332;2022-07-29T05:57:01;4.30;;;3.90;;
13879;SDS011;7010;48.200;16.332;2022-07-29T05:59:30;7.50;;;4.22;;
13879;SDS011;7010;48.200;16.332;2022-07-29T06:01:58;9.48;;;4.00;;
13879;SDS011;7010;48.200;16.332;2022-07-29T06:04:28;4.18;;;3.78;;
13879;SDS011;7010;48.200;16.332;2022-07-29T06:06:56;4.50;;;3.47;;
13879;SDS011;7010;48.200;16.332;2022-07-29T06:09:25;6.72;;;4.25;;
13879;SDS011;7010;48.200;16.332;2022-07-29T06:11:54;8.25;;;3.85;;
13879;SDS011;7010;48.200;16.332;2022-07-29T06:14:24;7.25;;;3.75;;
13879;SDS011;7010;48.200;16.332;2022-07-29T06:16:52;4.63;;;3.78;;
13879;SDS011;7010;48.200;16.332;2022-07-29T06:19:20;4.10;;;3.70;;
13879;SDS011;7010;48.200;16.332;2022-07-29T06:21:50;3.85;;;3.28;;
13879;SDS011;7010;48.200;16.332;2022-07-29T06:24:18;4.15;;;3.75;;
13879;SDS011;7010;48.200;16.332;2022-07-29T06:26:47;3.53;;;3.28;;
13879;SDS011;7010;48.200;16.332;2022-07-29T06:29:15;4.65;;;4.05;;
13879;SDS011;7010;48.200;16.332;2022-07-29T06:31:43;3.78;;;3.35;;
13879;SDS011;7010;48.200;16.332;2022-07-29T06:34:11;4.43;;;4.10;;
13879;SDS011;7010;48.200;16.332;2022-07-29T06:36:40;4.15;;;3.85;;
13879;SDS011;7010;48.200;16.332;2022-07-29T06:39:10;4.63;;;3.63;;
13879;SDS011;7010;48.200;16.332;2022-07-29T06:41:38;3.53;;;3.33;;
13879;SDS011;7010;48.200;16.332;2022-07-29T06:44:07;3.78;;;3.47;;
13879;SDS011;7010;48.200;16.332;2022-07-29T06:46:35;3.83;;;3.55;;
13879;SDS011;7010;48.200;16.332;2022-07-29T06:49:04;6.68;;;3.60;;
13879;SDS011;7010;48.200;16.332;2022-07-29T06:51:32;4.25;;;3.85;;
13879;SDS011;7010;48.200;16.332;2022-07-29T06:54:01;3.70;;;3.40;;
13879;SDS011;7010;48.200;16.332;2022-07-29T06:56:33;3.83;;;3.42;;
13879;SDS011;7010;48.200;16.332;2022-07-29T06:59:06;3.85;;;3.53;;
13879;SDS011;7010;48.200;16.332;2022-07-29T07:01:35;3.38;;;3.08;;
13879;SDS011;7010;48.200;16.332;2022-07-29T07:04:04;4.10;;;3.70;;
13879;SDS011;7010;48.200;16.332;2022-07-29T07:06:35;3.72;;;3.42;;
13879;SDS011;7010;48.200;16.332;2022-07-29T07:09:04;3.28;;;2.97;;
13879;SDS011;7010;48.200;16.332;2022-07-29T07:11:33;4.30;;;3.90;;
13879;SDS011;7010;48.200;16.332;2022-07-29T07:17:09;3.35;;;3.15;;
13879;SDS011;7010;48.200;16.332;2022-07-29T07:19:37;3.97;;;3.60;;
13879;SDS011;7010;48.200;16.332;2022-07-29T07:22:05;5.10;;;4.20;;
13879;SDS011;7010;48.200;16.332;2022-07-29T07:24:33;3.83;;;3.53;;
13879;SDS011;7010;48.200;16.332;2022-07-29T07:27:03;4.35;;;3.45;;
13879;SDS011;7010;48.200;16.332;2022-07-29T07:29:31;4.22;;;3.35;;
13879;SDS011;7010;48.200;16.332;2022-07-29T07:32:00;3.55;;;3.28;;
13879;SDS011;7010;48.200;16.332;2022-07-29T07:34:28;3.85;;;2.80;;
13879;SDS011;7010;48.200;16.332;2022-07-29T07:36:57;18.85;;;4.05;;
13879;SDS011;7010;48.200;16.332;2022-07-29T07:39:25;2.97;;;2.78;;
13879;SDS011;7010;48.200;16.332;2022-07-29T07:41:53;8.07;;;4.05;;
13879;SDS011;7010;48.200;16.332;2022-07-29T07:44:23;3.95;;;3.63;;
13879;SDS011;7010;48.200;16.332;2022-07-29T07:46:51;3.70;;;3.05;;
13879;SDS011;7010;48.200;16.332;2022-07-29T07:49:20;4.32;;;3.92;;
13879;SDS011;7010;48.200;16.332;2022-07-29T07:51:48;3.67;;;3.38;;
13879;SDS011;7010;48.200;16.332;2022-07-29T07:54:16;3.15;;;2.85;;
13879;SDS011;7010;48.200;16.332;2022-07-29T07:56:46;4.25;;;3.88;;
13879;SDS011;7010;48.200;16.332;2022-07-29T07:59:18;4.57;;;3.10;;
13879;SDS011;7010;48.200;16.332;2022-07-29T08:01:48;3.65;;;3.35;;
13879;SDS011;7010;48.200;16.332;2022-07-29T08:04:21;4.25;;;3.55;;
13879;SDS011;7010;48.200;16.332;2022-07-29T08:06:54;4.57;;;4.28;;
13879;SDS011;7010;48.200;16.332;2022-07-29T08:09:23;3.70;;;3.28;;
13879;SDS011;7010;48.200;16.332;2022-07-29T08:11:56;4.25;;;3.67;;
13879;SDS011;7010;48.200;16.332;2022-07-29T08:14:25;4.30;;;4.00;;
13879;SDS011;7010;48.200;16.332;2022-07-29T08:16:55;6.25;;;4.32;;
13879;SDS011;7010;48.200;16.332;2022-07-29T08:19:23;7.45;;;3.33;;
13879;SDS011;7010;48.200;16.332;2022-07-29T08:21:52;3.70;;;3.40;;
13879;SDS011;7010;48.200;16.332;2022-07-29T08:24:21;3.38;;;3.17;;
13879;SDS011;7010;48.200;16.332;2022-07-29T08:27:07;3.95;;;3.50;;
13879;SDS011;7010;48.200;16.332;2022-07-29T08:29:55;3.10;;;2.90;;
13879;SDS011;7010;48.200;16.332;2022-07-29T08:32:25;3.58;;;3.28;;
13879;SDS011;7010;48.200;16.332;2022-07-29T08:35:14;3.33;;;3.13;;
13879;SDS011;7010;48.200;16.332;2022-07-29T08:37:42;3.40;;;3.10;;
13879;SDS011;7010;48.200;16.332;2022-07-29T08:40:11;4.30;;;3.15;;
13879;SDS011;7010;48.200;16.332;2022-07-29T08:42:40;3.70;;;3.40;;
13879;SDS011;7010;48.200;16.332;2022-07-29T08:45:09;4.13;;;3.80;;
13879;SDS011;7010;48.200;16.332;2022-07-29T08:47:39;3.22;;;3.03;;
13879;SDS011;7010;48.200;16.332;2022-07-29T08:50:08;3.05;;;2.85;;
13879;SDS011;7010;48.200;16.332;2022-07-29T08:52:38;3.58;;;3.28;;
13879;SDS011;7010;48.200;16.332;2022-07-29T08:55:09;4.43;;;3.55;;
13879;SDS011;7010;48.200;16.332;2022-07-29T08:57:38;4.45;;;3.67;;
13879;SDS011;7010;48.200;16.332;2022-07-29T09:00:19;3.50;;;2.95;;
13879;SDS011;7010;48.200;16.332;2022-07-29T09:02:54;3.25;;;2.95;;
13879;SDS011;7010;48.200;16.332;2022-07-29T09:05:25;11.50;;;3.45;;
13879;SDS011;7010;48.200;16.332;2022-07-29T09:08:05;2.97;;;2.67;;
13879;SDS011;7010;48.200;16.332;2022-07-29T09:10:48;4.18;;;2.63;;
13879;SDS011;7010;48.200;16.332;2022-07-29T09:13:20;3.00;;;2.80;;
13879;SDS011;7010;48.200;16.332;2022-07-29T09:15:49;3.05;;;2.80;;
13879;SDS011;7010;48.200;16.332;2022-07-29T09:21:11;2.92;;;2.65;;
13879;SDS011;7010;48.200;16.332;2022-07-29T09:23:59;2.50;;;2.40;;
13879;SDS011;7010;48.200;16.332;2022-07-29T09:26:31;3.20;;;2.95;;
13879;SDS011;7010;48.200;16.332;2022-07-29T09:29:07;2.90;;;2.70;;
13879;SDS011;7010;48.200;16.332;2022-07-29T09:31:38;3.60;;;2.90;;
13879;SDS011;7010;48.200;16.332;2022-07-29T09:34:08;2.88;;;2.67;;
13879;SDS011;7010;48.200;16.332;2022-07-29T09:36:43;3.15;;;2.95;;
13879;SDS011;7010;48.200;16.332;2022-07-29T09:39:13;3.60;;;3.00;;
13879;SDS011;7010;48.200;16.332;2022-07-29T09:41:43;5.38;;;2.63;;
13879;SDS011;7010;48.200;16.332;2022-07-29T09:44:13;2.47;;;2.33;;
13879;SDS011;7010;48.200;16.332;2022-07-29T09:46:55;4.30;;;2.80;;
13879;SDS011;7010;48.200;16.332;2022-07-29T09:49:25;4.35;;;3.15;;
13879;SDS011;7010;48.200;16.332;2022-07-29T09:52:04;2.80;;;2.60;;
13879;SDS011;7010;48.200;16.332;2022-07-29T09:54:34;3.50;;;3.20;;
13879;SDS011;7010;48.200;16.332;2022-07-29T09:57:07;3.30;;;3.00;;
13879;SDS011;7010;48.200;16.332;2022-07-29T09:59:39;2.92;;;2.72;;
13879;SDS011;7010;48.200;16.332;2022-07-29T10:02:22;2.75;;;2.55;;
13879;SDS011;7010;48.200;16.332;2022-07-29T10:04:58;2.78;;;2.58;;
13879;SDS011;7010;48.200;16.332;2022-07-29T10:07:29;2.78;;;2.58;;
13879;SDS011;7010;48.200;16.332;2022-07-29T10:10:19;3.75;;;3.45;;
13879;SDS011;7010;48.200;16.332;2022-07-29T10:12:52;4.85;;;3.55;;
13879;SDS011;7010;48.200;16.332;2022-07-29T10:15:23;4.72;;;3.58;;
13879;SDS011;7010;48.200;16.332;2022-07-29T10:17:53;3.45;;;3.25;;
13879;SDS011;7010;48.200;16.332;2022-07-29T10:20:23;3.72;;;3.42;;
13879;SDS011;7010;48.200;16.332;2022-07-29T10:22:54;4.00;;;3.70;;
13879;SDS011;7010;48.200;16.332;2022-07-29T10:25:23;3.85;;;3.55;;
13879;SDS011;7010;48.200;16.332;2022-07-29T10:27:53;3.60;;;3.30;;
13879;SDS011;7010;48.200;16.332;2022-07-29T10:30:30;4.00;;;3.42;;
13879;SDS011;7010;48.200;16.332;2022-07-29T10:35:59;6.22;;;4.25;;
13879;SDS011;7010;48.200;16.332;2022-07-29T10:38:43;6.22;;;4.20;;
13879;SDS011;7010;48.200;16.332;2022-07-29T10:41:23;3.53;;;3.22;;
13879;SDS011;7010;48.200;16.332;2022-07-29T10:44:21;4.40;;;3.28;;
13879;SDS011;7010;48.200;16.332;2022-07-29T10:46:51;4.85;;;3.80;;
13879;SDS011;7010;48.200;16.332;2022-07-29T10:49:21;3.65;;;3.15;;
13879;SDS011;7010;48.200;16.332;2022-07-29T10:51:52;3.53;;;3.22;;
13879;SDS011;7010;48.200;16.332;2022-07-29T10:54:43;3.10;;;2.80;;
13879;SDS011;7010;48.200;16.332;2022-07-29T10:57:17;2.88;;;2.65;;
13879;SDS011;7010;48.200;16.332;2022-07-29T11:02:59;3.22;;;3.03;;
13879;SDS011;7010;48.200;16.332;2022-07-29T11:05:51;4.22;;;3.47;;
13879;SDS011;7010;48.200;16.332;2022-07-29T11:08:25;4.50;;;3.58;;
13879;SDS011;7010;48.200;16.332;2022-07-29T11:17:27;3.13;;;2.92;;
13879;SDS011;7010;48.200;16.332;2022-07-29T11:20:35;3.22;;;2.65;;
13879;SDS011;7010;48.200;16.332;2022-07-29T11:23:19;2.80;;;2.60;;
13879;SDS011;7010;48.200;16.332;2022-07-29T11:29:03;2.83;;;2.63;;
13879;SDS011;7010;48.200;16.332;2022-07-29T11:31:36;2.90;;;2.70;;
13879;SDS011;7010;48.200;16.332;2022-07-29T11:34:20;2.80;;;2.60;;
13879;SDS011;7010;48.200;16.332;2022-07-29T11:40:13;3.47;;;3.17;;
13879;SDS011;7010;48.200;16.332;2022-07-29T11:42:46;3.47;;;3.17;;
13879;SDS011;7010;48.200;16.332;2022-07-29T11:45:21;4.15;;;3.72;;
13879;SDS011;7010;48.200;16.332;2022-07-29T11:48:16;3.40;;;3.10;;
13879;SDS011;7010;48.200;16.332;2022-07-29T11:50:58;4.00;;;3.15;;
13879;SDS011;7010;48.200;16.332;2022-07-29T11:53:28;3.30;;;3.10;;
13879;SDS011;7010;48.200;16.332;2022-07-29T11:55:58;2.90;;;2.70;;
13879;SDS011;7010;48.200;16.332;2022-07-29T11:58:47;3.00;;;2.67;;
13879;SDS011;7010;48.200;16.332;2022-07-29T12:01:17;2.88;;;2.63;;
13879;SDS011;7010;48.200;16.332;2022-07-29T12:03:49;3.40;;;3.20;;
13879;SDS011;7010;48.200;16.332;2022-07-29T12:06:32;3.15;;;2.75;;
13879;SDS011;7010;48.200;16.332;2022-07-29T12:09:00;6.32;;;3.10;;
13879;SDS011;7010;48.200;16.332;2022-07-29T12:11:40;2.72;;;2.53;;
13879;SDS011;7010;48.200;16.332;2022-07-29T12:14:24;3.17;;;2.75;;
13879;SDS011;7010;48.200;16.332;2022-07-29T12:16:53;2.78;;;2.58;;
13879;SDS011;7010;48.200;16.332;2022-07-29T12:19:22;2.85;;;2.65;;
13879;SDS011;7010;48.200;16.332;2022-07-29T12:21:52;4.07;;;3.20;;
13879;SDS011;7010;48.200;16.332;2022-07-29T12:24:24;3.30;;;3.00;;
13879;SDS011;7010;48.200;16.332;2022-07-29T12:26:54;3.53;;;3.22;;
13879;SDS011;7010;48.200;16.332;2022-07-29T12:29:23;4.13;;;3.03;;
13879;SDS011;7010;48.200;16.332;2022-07-29T12:32:01;3.25;;;3.05;;
13879;SDS011;7010;48.200;16.332;2022-07-29T12:34:32;5.47;;;3.00;;
13879;SDS011;7010;48.200;16.332;2022-07-29T12:37:01;3.45;;;3.15;;
13879;SDS011;7010;48.200;16.332;2022-07-29T12:39:32;3.67;;;3.38;;
13879;SDS011;7010;48.200;16.332;2022-07-29T12:42:02;3.10;;;2.90;;
13879;SDS011;7010;48.200;16.332;2022-07-29T12:44:44;3.38;;;3.17;;
13879;SDS011;7010;48.200;16.332;2022-07-29T12:47:17;4.22;;;3.08;;
13879;SDS011;7010;48.200;16.332;2022-07-29T12:49:47;3.58;;;3.30;;
13879;SDS011;7010;48.200;16.332;2022-07-29T12:52:23;3.88;;;3.45;;
13879;SDS011;7010;48.200;16.332;2022-07-29T12:54:52;3.55;;;3.25;;
13879;SDS011;7010;48.200;16.332;2022-07-29T12:57:21;6.15;;;3.60;;
13879;SDS011;7010;48.200;16.332;2022-07-29T13:00:00;4.80;;;3.17;;
13879;SDS011;7010;48.200;16.332;2022-07-29T13:02:34;3.65;;;3.33;;
13879;SDS011;7010;48.200;16.332;2022-07-29T13:05:05;4.03;;;2.97;;
13879;SDS011;7010;48.200;16.332;2022-07-29T13:07:35;3.10;;;2.80;;
13879;SDS011;7010;48.200;16.332;2022-07-29T13:10:22;3.30;;;3.00;;
13879;SDS011;7010;48.200;16.332;2022-07-29T13:13:06;2.92;;;2.72;;
13879;SDS011;7010;48.200;16.332;2022-07-29T13:15:36;4.03;;;3.67;;
13879;SDS011;7010;48.200;16.332;2022-07-29T13:18:25;3.08;;;2.88;;
13879;SDS011;7010;48.200;16.332;2022-07-29T13:20:56;3.65;;;3.20;;
13879;SDS011;7010;48.200;16.332;2022-07-29T13:23:25;3.55;;;3.08;;
13879;SDS011;7010;48.200;16.332;2022-07-29T13:25:53;4.05;;;3.75;;
13879;SDS011;7010;48.200;16.332;2022-07-29T13:28:22;3.65;;;3.35;;
13879;SDS011;7010;48.200;16.332;2022-07-29T13:30:50;4.82;;;3.20;;
13879;SDS011;7010;48.200;16.332;2022-07-29T13:33:18;3.40;;;3.10;;
13879;SDS011;7010;48.200;16.332;2022-07-29T13:35:47;7.68;;;3.75;;
13879;SDS011;7010;48.200;16.332;2022-07-29T13:38:16;4.28;;;3.88;;
13879;SDS011;7010;48.200;16.332;2022-07-29T13:40:45;4.15;;;3.75;;
13879;SDS011;7010;48.200;16.332;2022-07-29T13:43:13;4.10;;;3.80;;
13879;SDS011;7010;48.200;16.332;2022-07-29T13:45:41;3.35;;;3.05;;
13879;SDS011;7010;48.200;16.332;2022-07-29T13:48:09;3.78;;;3.47;;
13879;SDS011;7010;48.200;16.332;2022-07-29T13:50:38;3.50;;;3.13;;
13879;SDS011;7010;48.200;16.332;2022-07-29T13:53:06;3.70;;;3.40;;
13879;SDS011;7010;48.200;16.332;2022-07-29T13:55:45;4.95;;;4.07;;
13879;SDS011;7010;48.200;16.332;2022-07-29T13:58:13;5.32;;;4.10;;
13879;SDS011;7010;48.200;16.332;2022-07-29T14:00:42;5.47;;;3.47;;
13879;SDS011;7010;48.200;16.332;2022-07-29T14:03:10;4.70;;;4.30;;
13879;SDS011;7010;48.200;16.332;2022-07-29T14:05:38;4.78;;;3.92;;
13879;SDS011;7010;48.200;16.332;2022-07-29T14:08:07;4.20;;;3.78;;
13879;SDS011;7010;48.200;16.332;2022-07-29T14:10:35;4.57;;;4.18;;
13879;SDS011;7010;48.200;16.332;2022-07-29T14:13:05;4.90;;;4.50;;
13879;SDS011;7010;48.200;16.332;2022-07-29T14:15:50;5.78;;;5.25;;
13879;SDS011;7010;48.200;16.332;2022-07-29T14:18:19;5.97;;;5.20;;
13879;SDS011;7010;48.200;16.332;2022-07-29T14:20:47;4.53;;;4.13;;
13879;SDS011;7010;48.200;16.332;2022-07-29T14:23:17;6.88;;;5.88;;
13879;SDS011;7010;48.200;16.332;2022-07-29T14:25:49;5.47;;;5.05;;
13879;SDS011;7010;48.200;16.332;2022-07-29T14:28:46;5.38;;;4.97;;
13879;SDS011;7010;48.200;16.332;2022-07-29T14:31:22;5.47;;;4.93;;
13879;SDS011;7010;48.200;16.332;2022-07-29T14:33:51;6.28;;;5.68;;
13879;SDS011;7010;48.200;16.332;2022-07-29T14:36:19;5.25;;;4.85;;
13879;SDS011;7010;48.200;16.332;2022-07-29T14:38:48;5.60;;;5.13;;
13879;SDS011;7010;48.200;16.332;2022-07-29T14:41:16;6.30;;;5.70;;
13879;SDS011;7010;48.200;16.332;2022-07-29T14:46:38;6.13;;;5.40;;
13879;SDS011;7010;48.200;16.332;2022-07-29T14:49:23;5.20;;;4.80;;
13879;SDS011;7010;48.200;16.332;2022-07-29T14:55:16;4.82;;;4.43;;
13879;SDS011;7010;48.200;16.332;2022-07-29T14:58:03;5.70;;;5.20;;
13879;SDS011;7010;48.200;16.332;2022-07-29T15:00:50;6.75;;;6.15;;
13879;SDS011;7010;48.200;16.332;2022-07-29T15:03:27;6.40;;;5.90;;
13879;SDS011;7010;48.200;16.332;2022-07-29T15:05:59;5.43;;;5.03;;
13879;SDS011;7010;48.200;16.332;2022-07-29T15:08:27;6.00;;;5.50;;
13879;SDS011;7010;48.200;16.332;2022-07-29T15:10:57;5.82;;;5.35;;
13879;SDS011;7010;48.200;16.332;2022-07-29T15:13:26;7.85;;;6.10;;
13879;SDS011;7010;48.200;16.332;2022-07-29T15:15:57;7.75;;;6.93;;
13879;SDS011;7010;48.200;16.332;2022-07-29T15:18:25;6.93;;;6.18;;
13879;SDS011;7010;48.200;16.332;2022-07-29T15:20:53;7.28;;;6.68;;
13879;SDS011;7010;48.200;16.332;2022-07-29T15:23:22;7.88;;;7.28;;
13879;SDS011;7010;48.200;16.332;2022-07-29T15:25:50;8.63;;;7.85;;
13879;SDS011;7010;48.200;16.332;2022-07-29T15:28:19;7.70;;;7.00;;
13879;SDS011;7010;48.200;16.332;2022-07-29T15:30:48;26.90;;;8.93;;
13879;SDS011;7010;48.200;16.332;2022-07-29T15:33:21;11.02;;;8.15;;
13879;SDS011;7010;48.200;16.332;2022-07-29T15:35:53;7.18;;;6.57;;
13879;SDS011;7010;48.200;16.332;2022-07-29T15:38:40;6.63;;;6.03;;
13879;SDS011;7010;48.200;16.332;2022-07-29T15:41:13;7.60;;;6.90;;
13879;SDS011;7010;48.200;16.332;2022-07-29T15:43:57;6.72;;;6.13;;
13879;SDS011;7010;48.200;16.332;2022-07-29T15:46:26;7.38;;;6.68;;
13879;SDS011;7010;48.200;16.332;2022-07-29T15:49:17;7.88;;;7.18;;
13879;SDS011;7010;48.200;16.332;2022-07-29T15:51:51;9.50;;;7.90;;